Time,TemperatureF,DewpointF,PressureIn,WindDirection,WindDirectionDegrees,WindSpeedMPH,WindSpeedGustMPH,Humidity,HourlyPrecipIn,Conditions,Clouds,dailyrainin,SoftwareType,DateUTC
2013-02-05 00:14:00,43.3,34.0,30.06,NE,41,0.0,-999.0,71,-99.99,,,0.00,weatherlink.com 1.10,2013-02-05 05:14:00,
2013-02-05 00:29:00,42.9,34.0,30.06,NE,41,0.0,-999.0,70,-99.99,,,0.00,weatherlink.com 1.10,2013-02-05 05:29:00,
2013-02-05 00:44:00,42.8,34.0,30.06,NE,41,0.0,-999.0,71,-99.99,,,0.00,weatherlink.com 1.10,2013-02-05 05:44:00,
2013-02-05 00:59:00,42.5,34.0,30.06,NE,41,0.0,-999.0,71,-99.99,,,0.00,weatherlink.com 1.10,2013-02-05 05:59:00,
2013-02-05 01:14:00,42.3,34.0,30.05,NE,41,0.0,-999.0,72,-99.99,,,0.00,weatherlink.com 1.10,2013-02-05 06:14:00,
2013-02-05 01:29:00,42.3,34.0,30.05,NE,41,0.0,-999.0,73,-99.99,,,0.00,weatherlink.com 1.10,2013-02-05 06:29:00,
2013-02-05 01:44:00,42.5,34.0,30.04,NE,41,0.0,-999.0,73,-99.99,,,0.00,weatherlink.com 1.10,2013-02-05 06:44:00,
2013-02-05 01:59:00,42.8,35.0,30.03,NE,41,0.0,-999.0,74,-99.99,,,0.00,weatherlink.com 1.10,2013-02-05 06:59:00,
2013-02-05 02:14:00,43.2,36.0,30.02,NE,41,0.0,-999.0,75,-99.99,,,0.00,weatherlink.com 1.10,2013-02-05 07:14:00,
2013-02-05 02:29:00,43.3,36.0,30.02,NE,41,0.0,-999.0,75,-99.99,,,0.00,weatherlink.com 1.10,2013-02-05 07:29:00,
2013-02-05 02:44:00,43.1,36.0,30.02,NE,41,0.0,-999.0,75,-99.99,,,0.00,weatherlink.com 1.10,2013-02-05 07:44:00,
2013-02-05 02:59:00,42.9,36.0,30.02,NE,41,0.0,-999.0,75,-99.99,,,0.00,weatherlink.com 1.10,2013-02-05 07:59:00,
2013-02-05 03:14:00,42.6,35.0,30.02,NE,41,0.0,-999.0,75,-99.99,,,0.00,weatherlink.com 1.10,2013-02-05 08:14:00,
2013-02-05 03:29:00,42.5,35.0,30.02,NE,41,0.0,-999.0,76,-99.99,,,0.00,weatherlink.com 1.10,2013-02-05 08:29:00,
2013-02-05 03:44:00,42.5,35.0,30.02,NE,41,0.0,-999.0,76,-99.99,,,0.00,weatherlink.com 1.10,2013-02-05 08:44:00,
2013-02-05 03:59:00,42.2,35.0,30.02,NE,41,0.0,-999.0,76,-99.99,,,0.00,weatherlink.com 1.10,2013-02-05 08:59:00,
2013-02-05 04:14:00,41.9,35.0,30.02,NE,41,0.0,-999.0,76,-99.99,,,0.00,weatherlink.com 1.10,2013-02-05 09:14:00,
2013-02-05 04:29:00,41.6,35.0,30.02,NE,41,0.0,-999.0,76,-99.99,,,0.00,weatherlink.com 1.10,2013-02-05 09:29:00,
2013-02-05 04:44:00,41.8,35.0,30.02,NE,41,0.0,-999.0,77,-99.99,,,0.00,weatherlink.com 1.10,2013-02-05 09:44:00,
2013-02-05 04:59:00,41.6,35.0,30.02,NE,41,0.0,-999.0,77,-99.99,,,0.00,weatherlink.com 1.10,2013-02-05 09:59:00,
2013-02-05 05:14:00,42.6,36.0,30.02,NE,41,0.0,-999.0,78,-99.99,,,0.00,weatherlink.com 1.10,2013-02-05 10:14:00,
2013-02-05 05:29:00,43.9,38.0,30.02,NE,41,0.0,-999.0,79,-99.99,,,0.00,weatherlink.com 1.10,2013-02-05 10:29:00,
2013-02-05 05:44:00,44.8,39.0,30.02,NE,41,0.0,-999.0,79,-99.99,,,0.00,weatherlink.com 1.10,2013-02-05 10:44:00,
2013-02-05 05:59:00,45.7,40.0,30.03,NE,41,0.0,-999.0,79,-99.99,,,0.00,weatherlink.com 1.10,2013-02-05 10:59:00,
2013-02-05 06:14:00,45.7,40.0,30.03,NE,41,0.0,-999.0,80,-99.99,,,0.00,weatherlink.com 1.10,2013-02-05 11:14:00,
2013-02-05 06:29:00,46.0,40.0,30.04,NE,41,0.0,-999.0,79,-99.99,,,0.00,weatherlink.com 1.10,2013-02-05 11:29:00,
2013-02-05 06:44:00,46.1,40.0,30.05,NE,41,0.0,-999.0,79,-99.99,,,0.00,weatherlink.com 1.10,2013-02-05 11:44:00,
2013-02-05 06:59:00,46.2,40.0,30.07,NE,41,0.0,-999.0,79,-99.99,,,0.00,weatherlink.com 1.10,2013-02-05 11:59:00,
2013-02-05 07:14:00,46.4,40.0,30.06,NE,41,0.0,-999.0,78,-99.99,,,0.00,weatherlink.com 1.10,2013-02-05 12:14:00,
2013-02-05 07:29:00,46.8,40.0,30.07,NE,42,0.0,-999.0,77,-99.99,,,0.00,weatherlink.com 1.10,2013-02-05 12:29:00,
2013-02-05 07:44:00,47.4,40.0,30.07,ESE,106,0.0,-999.0,75,-99.99,,,0.00,weatherlink.com 1.10,2013-02-05 12:44:00,
2013-02-05 07:59:00,47.7,40.0,30.07,ESE,106,0.0,-999.0,74,-99.99,,,0.00,weatherlink.com 1.10,2013-02-05 12:59:00,
2013-02-05 08:14:00,48.2,40.0,30.07,ESE,106,1.0,-999.0,74,-99.99,,,0.00,weatherlink.com 1.10,2013-02-05 13:14:00,
2013-02-05 08:29:00,48.8,40.0,30.08,ESE,106,0.0,-999.0,72,-99.99,,,0.00,weatherlink.com 1.10,2013-02-05 13:29:00,
2013-02-05 08:44:00,49.4,40.0,30.08,ESE,106,0.0,-999.0,70,-99.99,,,0.00,weatherlink.com 1.10,2013-02-05 13:44:00,
2013-02-05 08:59:00,49.8,40.0,30.09,ESE,106,0.0,-999.0,69,-99.99,,,0.00,weatherlink.com 1.10,2013-02-05 13:59:00,
2013-02-05 09:14:00,50.7,40.0,30.09,East,95,1.0,-999.0,67,-99.99,,,0.00,weatherlink.com 1.10,2013-02-05 14:14:00,
2013-02-05 09:29:00,52.2,41.0,30.09,East,95,0.0,-999.0,65,-99.99,,,0.00,weatherlink.com 1.10,2013-02-05 14:29:00,
2013-02-05 09:45:00,53.5,42.0,30.09,East,95,0.0,-999.0,66,-99.99,,,0.00,weatherlink.com 1.10,2013-02-05 14:45:00,
2013-02-05 10:00:00,54.7,43.0,30.08,ESE,107,0.0,-999.0,64,-99.99,,,0.00,weatherlink.com 1.10,2013-02-05 15:00:00,
2013-02-05 10:15:00,55.1,43.0,30.09,ENE,74,0.0,-999.0,63,-99.99,,,0.00,weatherlink.com 1.10,2013-02-05 15:15:00,
2013-02-05 10:30:00,55.6,43.0,30.09,SE,142,0.0,-999.0,63,-99.99,,,0.00,weatherlink.com 1.10,2013-02-05 15:30:00,
2013-02-05 10:45:00,56.7,43.0,30.09,SE,142,0.0,-999.0,61,-99.99,,,0.00,weatherlink.com 1.10,2013-02-05 15:45:00,
2013-02-05 11:00:00,59.2,44.0,30.09,SSE,148,0.0,-999.0,57,-99.99,,,0.00,weatherlink.com 1.10,2013-02-05 16:00:00,
2013-02-05 11:15:00,60.2,44.0,30.08,SSE,168,0.0,-999.0,55,-99.99,,,0.00,weatherlink.com 1.10,2013-02-05 16:15:00,
2013-02-05 11:30:00,60.4,44.0,30.08,WSW,247,0.0,-999.0,55,-99.99,,,0.00,weatherlink.com 1.10,2013-02-05 16:30:00,
2013-02-05 11:45:00,61.0,44.0,30.08,ESE,123,1.0,-999.0,54,-99.99,,,0.00,weatherlink.com 1.10,2013-02-05 16:45:00,
2013-02-05 12:00:00,62.0,44.0,30.07,East,93,0.0,-999.0,53,-99.99,,,0.00,weatherlink.com 1.10,2013-02-05 17:00:00,
2013-02-05 12:16:00,63.7,44.0,30.06,East,97,2.0,-999.0,49,-99.99,,,0.00,weatherlink.com 1.10,2013-02-05 17:16:00,
2013-02-05 12:31:00,65.6,44.0,30.05,NE,52,0.0,-999.0,46,-99.99,,,0.00,weatherlink.com 1.10,2013-02-05 17:31:00,
2013-02-05 12:46:00,67.4,44.0,30.04,SE,131,4.0,-999.0,43,-99.99,,,0.00,weatherlink.com 1.10,2013-02-05 17:46:00,
2013-02-05 13:01:00,67.9,44.0,30.03,ENE,69,0.0,-999.0,42,-99.99,,,0.00,weatherlink.com 1.10,2013-02-05 18:01:00,
2013-02-05 13:16:00,69.4,45.0,30.02,SSE,151,0.0,-999.0,41,-99.99,,,0.00,weatherlink.com 1.10,2013-02-05 18:16:00,
2013-02-05 13:31:00,69.8,46.0,30.02,NW,307,0.0,-999.0,42,-99.99,,,0.00,weatherlink.com 1.10,2013-02-05 18:31:00,
2013-02-05 13:46:00,67.9,46.0,30.01,ENE,76,3.0,-999.0,45,-99.99,,,0.00,weatherlink.com 1.10,2013-02-05 18:46:00,
2013-02-05 14:01:00,67.4,46.0,30.01,NNE,14,2.0,-999.0,46,-99.99,,,0.00,weatherlink.com 1.10,2013-02-05 19:01:00,
2013-02-05 14:16:00,66.8,46.0,30.01,WNW,283,0.0,-999.0,47,-99.99,,,0.00,weatherlink.com 1.10,2013-02-05 19:16:00,
2013-02-05 14:31:00,66.6,46.0,30.00,ENE,58,1.0,-999.0,47,-99.99,,,0.00,weatherlink.com 1.10,2013-02-05 19:31:00,
2013-02-05 14:46:00,66.9,45.0,30.00,NNW,335,3.0,-999.0,45,-99.99,,,0.00,weatherlink.com 1.10,2013-02-05 19:46:00,
2013-02-05 15:01:00,66.9,46.0,30.00,East,85,1.0,-999.0,47,-99.99,,,0.00,weatherlink.com 1.10,2013-02-05 20:01:00,
2013-02-05 15:16:00,66.4,45.0,30.00,NNE,31,2.0,-999.0,47,-99.99,,,0.00,weatherlink.com 1.10,2013-02-05 20:16:00,
2013-02-05 15:31:00,66.0,46.0,30.00,East,79,1.0,-999.0,49,-99.99,,,0.00,weatherlink.com 1.10,2013-02-05 20:31:00,
2013-02-05 15:46:00,66.0,46.0,30.00,East,79,5.0,-999.0,48,-99.99,,,0.00,weatherlink.com 1.10,2013-02-05 20:46:00,
2013-02-05 16:01:00,65.6,46.0,29.99,ENE,69,1.0,-999.0,49,-99.99,,,0.00,weatherlink.com 1.10,2013-02-05 21:01:00,
2013-02-05 16:16:00,65.2,45.0,30.00,North,349,0.0,-999.0,49,-99.99,,,0.00,weatherlink.com 1.10,2013-02-05 21:16:00,
2013-02-05 16:31:00,65.2,46.0,30.00,North,2,1.0,-999.0,50,-99.99,,,0.00,weatherlink.com 1.10,2013-02-05 21:31:00,
2013-02-05 16:46:00,63.7,46.0,30.00,ENE,72,0.0,-999.0,52,-99.99,,,0.00,weatherlink.com 1.10,2013-02-05 21:46:00,
2013-02-05 17:01:00,62.4,45.0,30.00,East,98,2.0,-999.0,54,-99.99,,,0.00,weatherlink.com 1.10,2013-02-05 22:01:00,
2013-02-05 17:16:00,61.3,46.0,29.99,ENE,69,2.0,-999.0,57,-99.99,,,0.00,weatherlink.com 1.10,2013-02-05 22:16:00,
2013-02-05 17:31:00,60.4,46.0,29.99,East,95,4.0,-999.0,59,-99.99,,,0.00,weatherlink.com 1.10,2013-02-05 22:31:00,
2013-02-05 17:46:00,59.5,45.0,30.00,ENE,57,2.0,-999.0,60,-99.99,,,0.00,weatherlink.com 1.10,2013-02-05 22:46:00,
2013-02-05 18:01:00,58.6,45.0,30.00,ENE,65,0.0,-999.0,61,-99.99,,,0.00,weatherlink.com 1.10,2013-02-05 23:01:00,
2013-02-05 18:16:00,58.0,45.0,30.00,East,91,1.0,-999.0,62,-99.99,,,0.00,weatherlink.com 1.10,2013-02-05 23:16:00,
2013-02-05 18:31:00,57.6,44.0,30.00,ENE,63,0.0,-999.0,62,-99.99,,,0.00,weatherlink.com 1.10,2013-02-05 23:31:00,
2013-02-05 18:46:00,57.3,44.0,30.00,NE,54,2.0,-999.0,62,-99.99,,,0.00,weatherlink.com 1.10,2013-02-05 23:46:00,
2013-02-05 19:01:00,57.0,44.0,30.01,ENE,74,5.0,-999.0,62,-99.99,,,0.00,weatherlink.com 1.10,2013-02-06 00:01:00,
2013-02-05 19:16:00,57.0,43.0,30.01,ENE,70,2.0,-999.0,60,-99.99,,,0.00,weatherlink.com 1.10,2013-02-06 00:16:00,
2013-02-05 19:31:00,56.7,42.0,30.01,ENE,70,2.0,-999.0,58,-99.99,,,0.00,weatherlink.com 1.10,2013-02-06 00:31:00,
2013-02-05 19:46:00,56.7,42.0,30.02,NE,49,0.0,-999.0,58,-99.99,,,0.00,weatherlink.com 1.10,2013-02-06 00:46:00,
2013-02-05 20:01:00,56.9,42.0,30.02,East,79,5.0,-999.0,58,-99.99,,,0.00,weatherlink.com 1.10,2013-02-06 01:01:00,
2013-02-05 20:16:00,56.7,42.0,30.02,ENE,73,0.0,-999.0,58,-99.99,,,0.00,weatherlink.com 1.10,2013-02-06 01:16:00,
2013-02-05 20:31:00,56.9,42.0,30.02,NE,44,0.0,-999.0,59,-99.99,,,0.00,weatherlink.com 1.10,2013-02-06 01:31:00,
2013-02-05 20:46:00,56.9,43.0,30.03,ENE,69,0.0,-999.0,60,-99.99,,,0.00,weatherlink.com 1.10,2013-02-06 01:46:00,
2013-02-05 21:01:00,56.9,43.0,30.03,ENE,60,1.0,-999.0,60,-99.99,,,0.00,weatherlink.com 1.10,2013-02-06 02:01:00,
2013-02-05 21:16:00,57.0,43.0,30.03,ESE,108,0.0,-999.0,60,-99.99,,,0.00,weatherlink.com 1.10,2013-02-06 02:16:00,
2013-02-05 21:31:00,57.0,43.0,30.03,ENE,74,0.0,-999.0,60,-99.99,,,0.00,weatherlink.com 1.10,2013-02-06 02:31:00,
2013-02-05 21:46:00,56.7,43.0,30.03,ENE,77,0.0,-999.0,60,-99.99,,,0.00,weatherlink.com 1.10,2013-02-06 02:46:00,
2013-02-05 22:01:00,56.5,43.0,30.03,East,99,1.0,-999.0,61,-99.99,,,0.00,weatherlink.com 1.10,2013-02-06 03:01:00,
2013-02-05 22:16:00,56.2,43.0,30.04,East,101,0.0,-999.0,62,-99.99,,,0.00,weatherlink.com 1.10,2013-02-06 03:16:00,
2013-02-05 22:31:00,55.9,43.0,30.05,East,99,0.0,-999.0,63,-99.99,,,0.00,weatherlink.com 1.10,2013-02-06 03:31:00,
2013-02-05 22:46:00,55.7,43.0,30.05,East,97,0.0,-999.0,63,-99.99,,,0.00,weatherlink.com 1.10,2013-02-06 03:46:00,
2013-02-05 23:01:00,55.6,43.0,30.05,East,97,0.0,-999.0,63,-99.99,,,0.00,weatherlink.com 1.10,2013-02-06 04:01:00,
2013-02-05 23:16:00,55.3,43.0,30.05,East,92,0.0,-999.0,64,-99.99,,,0.00,weatherlink.com 1.10,2013-02-06 04:16:00,
2013-02-05 23:31:00,55.3,43.0,30.05,East,94,0.0,-999.0,64,-99.99,,,0.00,weatherlink.com 1.10,2013-02-06 04:31:00,
2013-02-05 23:46:00,55.0,43.0,30.05,East,94,0.0,-999.0,64,-99.99,,,0.00,weatherlink.com 1.10,2013-02-06 04:46:00,